Terminal Aerodrome Forecast
Issued by NWS Bismarck, ND

Home | Current Version | Previous Version | Text Only | Print | Product List | Glossary Off
Versions: 1 2 3 4 5 6 7 8 9 10 11 12 13 14 15 16 17 18 19

000
FTUS43 KBIS 260300 AAA
TAFBIS
TAF AMD
KBIS 260330Z 2604/2624 02022G29KT P6SM OVC024
      TEMPO 2604/2606 5SM -SN BLSN
     FM261100 35010KT P6SM BKN050
     FM261600 36006KT P6SM BKN040
     FM262300 06004KT P6SM BKN050=

USA.gov is the U.S. government's official web portal to all federal, state and local government web resources and services.